Time;durP1;ratioP1;P1;durP2;ratioP2;P2;SDS_P1;SDS_P2;PMS_P1;PMS_P2;Temp;Humidity;BMP_temperature;BMP_pressure;BME280_temperature;BME280_humidity;BME280_pressure;Samples;Min_cycle;Max_cycle;Signal;HPM_P1;HPM_P2
2021/06/03 05:14:55;;;;;;;;;;;12.10;99.90;;;;;;5373950;23;20132;31
2021/06/03 05:17:36;;;;;;;;;;;12.10;99.90;;;;;;4859671;29;19935;-96
2021/06/03 05:40:25;;;;;;;;;;;12.70;99.90;;;;;;4967954;29;19922;-96
2021/06/03 05:46:50;;;;;;;;;;;12.90;99.90;;;;;;4929812;29;19913;-96
2021/06/03 05:49:18;;;;;;;;;;;13.60;99.90;;;;;;4904624;29;19928;-96
2021/06/03 05:54:54;;;;;;;;;;;15.80;99.90;;;;;;5125625;23;19934;-96
2021/06/03 06:07:45;;;;;;;;;;;21.20;90.70;;;;;;4888156;28;20357;-96
2021/06/03 06:10:28;;;;;;;;;;;22.60;83.50;;;;;;4873211;29;19966;-96
2021/06/03 06:12:59;;;;;;;;;;;23.20;80.20;;;;;;4882870;29;19934;-94
2021/06/03 06:15:27;;;;;;;;;;;24.20;75.80;;;;;;4883018;29;19928;-96
2021/06/03 06:17:58;;;;;;;;;;;24.40;71.30;;;;;;4882158;29;19976;-96
2021/06/03 06:20:26;;;;;;;;;;;25.30;67.10;;;;;;4884654;29;19927;-95
2021/06/03 06:22:54;;;;;;;;;;;25.60;65.50;;;;;;4884177;29;19931;-95
2021/06/03 06:25:25;;;;;;;;;;;25.40;64.30;;;;;;4886834;29;19928;-96
2021/06/03 06:27:56;;;;;;;;;;;25.80;62.30;;;;;;4890729;29;19919;-96
2021/06/03 06:33:34;;;;;;;;;;;26.60;58.40;;;;;;1567670;23;20202;-93
2021/06/03 06:39:33;;;;;;;;;;;28.30;54.60;;;;;;4945217;29;19926;-96
2021/06/03 06:42:01;;;;;;;;;;;29.60;51.50;;;;;;4910502;29;19937;-95
2021/06/03 06:44:28;;;;;;;;;;;29.80;48.90;;;;;;4925583;29;19934;-95
2021/06/03 06:46:55;;;;;;;;;;;30.20;48.00;;;;;;4925717;29;19954;-91
2021/06/03 06:49:28;;;;;;;;;;;30.10;48.10;;;;;;4925381;29;19927;-96
2021/06/03 06:51:55;;;;;;;;;;;28.60;49.30;;;;;;4932387;29;19986;-96
2021/06/03 07:01:15;;;;;;;;;;;26.10;55.70;;;;;;4916263;29;19916;-96
2021/06/03 07:03:46;;;;;;;;;;;25.30;57.60;;;;;;5138330;23;19997;-96
2021/06/03 07:06:16;;;;;;;;;;;24.90;58.90;;;;;;4949038;29;19933;-94
2021/06/03 07:08:44;;;;;;;;;;;24.40;56.50;;;;;;4941376;29;19927;-95
2021/06/03 07:11:12;;;;;;;;;;;24.90;56.30;;;;;;4941689;29;19926;-94
2021/06/03 07:13:43;;;;;;;;;;;25.20;56.90;;;;;;4948434;29;19927;-96
2021/06/03 07:16:09;;;;;;;;;;;24.90;56.90;;;;;;4942132;29;20362;-94
2021/06/03 07:18:36;;;;;;;;;;;25.10;58.30;;;;;;4940756;29;20017;-94
2021/06/03 07:21:05;;;;;;;;;;;25.10;57.20;;;;;;4940990;29;19953;-94
2021/06/03 07:23:35;;;;;;;;;;;24.90;57.40;;;;;;4942825;29;20359;-93
2021/06/03 07:26:02;;;;;;;;;;;24.50;58.00;;;;;;4944831;29;19933;-95
2021/06/03 07:31:59;;;;;;;;;;;23.00;62.20;;;;;;4960428;28;19929;-95
2021/06/03 07:34:27;;;;;;;;;;;22.20;69.20;;;;;;4944044;29;20347;-95
2021/06/03 07:36:55;;;;;;;;;;;22.00;62.80;;;;;;4945026;29;19926;-95
2021/06/03 07:39:22;;;;;;;;;;;21.60;65.30;;;;;;4943666;29;19926;-95
2021/06/03 07:41:50;;;;;;;;;;;21.40;67.50;;;;;;4944566;29;19937;-94
2021/06/03 07:44:17;;;;;;;;;;;21.40;68.30;;;;;;4966234;28;19914;-96
2021/06/03 07:46:45;;;;;;;;;;;21.40;68.70;;;;;;4957360;29;19934;-94
2021/06/03 07:49:13;;;;;;;;;;;21.30;68.20;;;;;;4944896;29;19927;-94
2021/06/03 07:51:41;;;;;;;;;;;21.00;69.90;;;;;;4944138;29;19926;-95
2021/06/03 07:54:08;;;;;;;;;;;20.90;70.80;;;;;;4944558;29;19933;-95
2021/06/03 07:56:35;;;;;;;;;;;20.80;71.10;;;;;;4944863;29;19933;-95
2021/06/03 07:59:03;;;;;;;;;;;20.80;67.10;;;;;;4944433;29;19933;-95
2021/06/03 08:01:30;;;;;;;;;;;20.80;71.10;;;;;;4963470;29;19926;-94
2021/06/03 08:03:57;;;;;;;;;;;20.70;69.30;;;;;;4962138;29;19930;-94
2021/06/03 08:06:24;;;;;;;;;;;20.60;72.30;;;;;;4949122;29;20369;-95
2021/06/03 08:08:51;;;;;;;;;;;20.80;68.30;;;;;;4947244;29;19933;-95
2021/06/03 08:11:20;;;;;;;;;;;20.80;67.50;;;;;;4944229;29;19933;-95
2021/06/03 08:13:47;;;;;;;;;;;20.70;69.30;;;;;;4944547;29;19926;-95
2021/06/03 08:16:14;;;;;;;;;;;20.40;74.60;;;;;;4949962;29;19931;-95
2021/06/03 08:18:43;;;;;;;;;;;20.50;74.80;;;;;;4956662;29;19926;-93
2021/06/03 08:21:10;;;;;;;;;;;20.40;74.40;;;;;;4957563;28;19978;-95
2021/06/03 08:23:37;;;;;;;;;;;20.30;77.90;;;;;;4955501;29;19926;-95
2021/06/03 08:26:04;;;;;;;;;;;20.30;80.40;;;;;;4946948;29;19926;-95
2021/06/03 08:28:32;;;;;;;;;;;20.30;75.80;;;;;;4943075;29;20359;-96
2021/06/03 08:31:00;;;;;;;;;;;20.40;78.70;;;;;;4942480;29;19934;-95
2021/06/03 08:33:28;;;;;;;;;;;20.10;77.50;;;;;;4942979;29;19950;-95
2021/06/03 08:35:55;;;;;;;;;;;20.10;81.20;;;;;;4943080;29;19926;-94
2021/06/03 08:38:22;;;;;;;;;;;20.40;81.20;;;;;;4942839;29;19926;-95
2021/06/03 08:40:53;;;;;;;;;;;20.30;78.20;;;;;;4943849;29;20009;-94
2021/06/03 08:43:23;;;;;;;;;;;20.10;80.20;;;;;;4943322;29;19931;-95
2021/06/03 08:45:50;;;;;;;;;;;20.00;80.00;;;;;;4943976;29;19938;-94
2021/06/03 08:48:17;;;;;;;;;;;19.80;81.70;;;;;;4943527;29;19927;-95
2021/06/03 08:50:46;;;;;;;;;;;19.60;83.30;;;;;;4942688;29;20260;-95
2021/06/03 08:53:13;;;;;;;;;;;19.80;85.40;;;;;;4943309;29;19961;-95
2021/06/03 08:58:28;;;;;;;;;;;19.60;82.00;;;;;;4960574;28;19928;-94
2021/06/03 09:00:57;;;;;;;;;;;19.70;84.10;;;;;;4942570;29;19932;-94
2021/06/03 09:03:26;;;;;;;;;;;19.80;83.90;;;;;;4942575;29;19926;-95
2021/06/03 09:05:53;;;;;;;;;;;20.10;83.00;;;;;;4942132;29;19933;-95
2021/06/03 09:08:21;;;;;;;;;;;20.70;83.50;;;;;;4942691;29;20365;-94
2021/06/03 09:10:49;;;;;;;;;;;21.30;82.30;;;;;;4942335;28;19933;-95
2021/06/03 09:13:19;;;;;;;;;;;21.90;77.60;;;;;;4942631;29;19926;-94
2021/06/03 09:15:48;;;;;;;;;;;22.40;76.20;;;;;;4942432;29;20005;-94
2021/06/03 09:18:16;;;;;;;;;;;22.50;76.80;;;;;;4942444;29;19934;-94
2021/06/03 09:20:45;;;;;;;;;;;22.60;73.00;;;;;;4941759;29;19927;-95
2021/06/03 09:23:29;;;;;;;;;;;22.40;73.40;;;;;;4943100;29;20270;-94
2021/06/03 09:25:57;;;;;;;;;;;22.40;81.40;;;;;;4949204;28;19917;-94
2021/06/03 09:28:27;;;;;;;;;;;22.40;75.00;;;;;;4944233;29;19926;-95
2021/06/03 09:31:06;;;;;;;;;;;22.40;80.30;;;;;;4942858;29;19933;-94
2021/06/03 09:33:39;;;;;;;;;;;22.30;78.80;;;;;;4962275;28;19915;-95
2021/06/03 09:36:07;;;;;;;;;;;22.20;77.40;;;;;;4961422;29;19937;-95
2021/06/03 09:38:35;;;;;;;;;;;22.10;77.00;;;;;;4941321;29;19926;-93
2021/06/03 09:41:03;;;;;;;;;;;22.00;75.90;;;;;;4949317;29;19933;-94
2021/06/03 09:43:30;;;;;;;;;;;22.00;76.40;;;;;;4943086;29;19940;-95
2021/06/03 09:46:02;;;;;;;;;;;21.80;79.50;;;;;;4941829;29;20396;-95
2021/06/03 09:48:40;;;;;;;;;;;21.50;77.70;;;;;;4941676;29;19926;-95
2021/06/03 09:51:25;;;;;;;;;;;21.50;79.40;;;;;;4942151;29;19926;-95
2021/06/03 09:54:02;;;;;;;;;;;21.80;81.20;;;;;;4944171;29;19927;-95
2021/06/03 09:56:30;;;;;;;;;;;21.80;77.90;;;;;;4941467;29;20322;-95
2021/06/03 09:58:57;;;;;;;;;;;22.00;77.40;;;;;;4941586;29;19927;-95
2021/06/03 10:01:38;;;;;;;;;;;21.90;77.80;;;;;;4941487;29;19933;-95
2021/06/03 10:04:06;;;;;;;;;;;22.10;78.10;;;;;;4941509;29;19963;-95
2021/06/03 10:06:55;;;;;;;;;;;22.00;75.30;;;;;;4952342;29;19926;-96
2021/06/03 10:09:35;;;;;;;;;;;22.00;75.80;;;;;;4957135;28;19911;-96
2021/06/03 10:15:47;;;;;;;;;;;21.60;74.40;;;;;;4970931;29;19940;-96
2021/06/03 10:18:30;;;;;;;;;;;21.70;77.10;;;;;;4960725;29;19958;-96
2021/06/03 10:21:03;;;;;;;;;;;21.90;73.30;;;;;;4958054;29;19990;-96
2021/06/03 10:23:42;;;;;;;;;;;22.00;75.90;;;;;;4974220;29;19991;-96
2021/06/03 10:26:12;;;;;;;;;;;22.40;69.40;;;;;;5058082;23;19990;-95
2021/06/03 10:28:42;;;;;;;;;;;22.30;74.20;;;;;;4951906;28;19951;-96
2021/06/03 10:31:12;;;;;;;;;;;22.60;72.70;;;;;;4931480;29;19927;-95
2021/06/03 10:59:01;;;;;;;;;;;22.10;67.90;;;;;;4972591;29;19953;-96
2021/06/03 11:02:02;;;;;;;;;;;;;;;;;;;;;
2021/06/03 11:04:46;;;;;;;;;;;21.90;70.50;;;;;;4965569;29;19930;-95
2021/06/03 11:07:14;;;;;;;;;;;22.20;71.50;;;;;;4944488;29;19933;-94
2021/06/03 11:09:44;;;;;;;;;;;22.40;69.60;;;;;;4949380;29;19985;-95
2021/06/03 11:12:13;;;;;;;;;;;22.40;67.90;;;;;;4930966;29;19933;-94
2021/06/03 11:15:00;;;;;;;;;;;22.40;70.10;;;;;;4962698;29;19927;-92
2021/06/03 11:17:46;;;;;;;;;;;22.30;70.10;;;;;;4960844;29;19933;-93
2021/06/03 11:20:13;;;;;;;;;;;22.50;67.90;;;;;;4964076;28;19930;-91
2021/06/03 11:22:40;;;;;;;;;;;22.60;73.90;;;;;;4966606;28;19934;-91
2021/06/03 11:25:07;;;;;;;;;;;22.80;70.60;;;;;;4966687;28;19943;-94
2021/06/03 11:58:59;;;;;;;;;;;24.90;56.80;;;;;;4963432;23;19939;-95
2021/06/03 12:02:00;;;;;;;;;;;24.70;61.80;;;;;;4956767;29;19969;-94
2021/06/03 12:05:06;;;;;;;;;;;25.00;59.30;;;;;;4904882;29;20018;-95
2021/06/03 12:22:06;;;;;;;;;;;26.70;56.20;;;;;;5516061;23;19934;-93
2021/06/03 12:24:33;;;;;;;;;;;26.80;54.10;;;;;;4943291;29;19926;-94
2021/06/03 12:27:07;;;;;;;;;;;26.70;54.30;;;;;;4950136;29;20018;-96
2021/06/03 12:29:36;;;;;;;;;;;26.60;52.80;;;;;;4957983;28;19926;-95
2021/06/03 12:32:18;;;;;;;;;;;;;;;;;;;;;
2021/06/03 12:35:10;;;;;;;;;;;26.40;54.40;;;;;;5102293;23;19934;-96
2021/06/03 12:37:37;;;;;;;;;;;25.20;55.20;;;;;;4946103;29;19926;-95
2021/06/03 12:40:07;;;;;;;;;;;25.40;57.00;;;;;;4945565;29;19926;-95
2021/06/03 12:42:34;;;;;;;;;;;25.70;58.10;;;;;;4952822;29;19926;-94
2021/06/03 12:45:16;;;;;;;;;;;26.00;54.30;;;;;;4948824;29;19926;-96
2021/06/03 12:47:53;;;;;;;;;;;26.30;55.10;;;;;;4951859;29;19994;-96
2021/06/03 12:50:41;;;;;;;;;;;26.80;53.70;;;;;;4924905;29;19961;-96
2021/06/03 12:53:09;;;;;;;;;;;26.90;52.00;;;;;;4920531;29;20026;-96
2021/06/03 12:55:36;;;;;;;;;;;27.00;53.90;;;;;;4919396;29;19927;-95
2021/06/03 12:58:08;;;;;;;;;;;27.60;55.30;;;;;;4918853;29;20411;-95
2021/06/03 13:00:36;;;;;;;;;;;28.30;56.40;;;;;;4921071;29;19931;-95
2021/06/03 13:03:10;;;;;;;;;;;28.50;50.30;;;;;;4919795;29;19937;-96
2021/06/03 13:05:37;;;;;;;;;;;27.70;50.50;;;;;;4918836;29;19927;-95
2021/06/03 13:08:04;;;;;;;;;;;27.20;53.50;;;;;;4918939;29;19927;-95
2021/06/03 13:10:31;;;;;;;;;;;27.30;55.20;;;;;;4927665;29;19971;-96
2021/06/03 13:13:00;;;;;;;;;;;27.50;55.80;;;;;;4942033;29;19935;-96
2021/06/03 13:18:55;;;;;;;;;;;28.10;51.00;;;;;;4920648;29;19922;-96
2021/06/03 13:21:22;;;;;;;;;;;28.70;53.00;;;;;;4923205;29;19933;-95
2021/06/03 13:23:49;;;;;;;;;;;29.10;51.80;;;;;;4943009;29;19927;-95
2021/06/03 13:26:20;;;;;;;;;;;29.50;56.60;;;;;;4943776;29;19933;-95
2021/06/03 13:28:47;;;;;;;;;;;29.10;49.40;;;;;;4943312;29;19927;-96
2021/06/03 13:31:17;;;;;;;;;;;29.00;49.50;;;;;;4943267;29;19936;-95
2021/06/03 13:33:45;;;;;;;;;;;28.90;52.20;;;;;;4946935;29;19944;-96
2021/06/03 13:36:13;;;;;;;;;;;29.10;52.30;;;;;;4958089;29;19968;-96
2021/06/03 13:38:45;;;;;;;;;;;28.60;53.90;;;;;;4959759;28;19946;-96
2021/06/03 13:41:13;;;;;;;;;;;28.10;50.00;;;;;;4959420;28;19954;-96
2021/06/03 13:43:43;;;;;;;;;;;27.50;49.60;;;;;;4947430;29;19926;-96
2021/06/03 13:46:16;;;;;;;;;;;26.60;51.70;;;;;;4952226;29;19930;-96
2021/06/03 13:48:47;;;;;;;;;;;25.90;59.30;;;;;;4948803;29;19934;-96
2021/06/03 13:51:16;;;;;;;;;;;25.60;53.30;;;;;;4944557;29;19930;-96
2021/06/03 13:53:45;;;;;;;;;;;25.50;51.30;;;;;;4942029;29;19930;-95
2021/06/03 13:56:12;;;;;;;;;;;25.90;53.20;;;;;;4943131;29;20017;-96
2021/06/03 13:58:39;;;;;;;;;;;26.40;51.70;;;;;;4943166;29;19933;-95
2021/06/03 14:01:12;;;;;;;;;;;27.10;50.00;;;;;;4941885;29;19926;-96
2021/06/03 14:03:45;;;;;;;;;;;27.60;48.90;;;;;;4941278;29;20282;-96
2021/06/03 14:06:13;;;;;;;;;;;28.00;50.10;;;;;;4943956;29;19968;-95
2021/06/03 14:08:45;;;;;;;;;;;28.70;48.60;;;;;;4942360;29;19926;-96
2021/06/03 14:11:35;;;;;;;;;;;29.00;48.50;;;;;;4941951;29;20278;-94
2021/06/03 14:14:09;;;;;;;;;;;29.80;47.90;;;;;;4941820;29;19930;-96
2021/06/03 14:16:42;;;;;;;;;;;29.50;48.20;;;;;;4942701;29;19926;-96
2021/06/03 14:19:14;;;;;;;;;;;29.80;49.70;;;;;;4941821;29;19965;-96
2021/06/03 14:22:02;;;;;;;;;;;29.80;46.80;;;;;;4941951;29;20012;-96
2021/06/03 14:24:32;;;;;;;;;;;29.70;48.40;;;;;;4866099;29;19944;-94
2021/06/03 14:27:20;;;;;;;;;;;29.40;43.40;;;;;;4864738;29;20023;-96
2021/06/03 14:29:54;;;;;;;;;;;29.30;46.50;;;;;;4864597;29;20365;-96
2021/06/03 14:32:36;;;;;;;;;;;28.40;45.80;;;;;;4865297;29;19956;-96
2021/06/03 14:35:10;;;;;;;;;;;27.80;46.60;;;;;;4866331;29;19928;-96
2021/06/03 14:37:49;;;;;;;;;;;27.30;49.00;;;;;;4884556;29;20006;-96
2021/06/03 14:40:27;;;;;;;;;;;26.40;48.80;;;;;;4866468;29;19935;-95
2021/06/03 14:43:05;;;;;;;;;;;25.70;48.20;;;;;;4868694;29;19928;-96
2021/06/03 14:45:32;;;;;;;;;;;25.30;49.70;;;;;;4889115;29;19952;-96
2021/06/03 14:47:59;;;;;;;;;;;25.50;49.30;;;;;;4891463;29;19916;-95
2021/06/03 14:50:31;;;;;;;;;;;25.70;49.80;;;;;;4883322;29;20050;-95
2021/06/03 14:52:59;;;;;;;;;;;26.20;48.50;;;;;;4873063;29;19934;-95
2021/06/03 14:55:28;;;;;;;;;;;27.20;49.50;;;;;;4869272;29;19928;-96
2021/06/03 14:57:55;;;;;;;;;;;27.70;52.00;;;;;;4868998;29;19934;-95
2021/06/03 15:00:25;;;;;;;;;;;28.00;47.00;;;;;;4881485;29;19935;-96
2021/06/03 15:02:53;;;;;;;;;;;27.70;48.60;;;;;;4967413;28;19990;-96
2021/06/03 15:05:22;;;;;;;;;;;27.80;49.30;;;;;;4975493;28;19927;-94
2021/06/03 15:07:50;;;;;;;;;;;28.00;46.00;;;;;;4948586;29;20437;-94
2021/06/03 15:10:19;;;;;;;;;;;27.50;46.60;;;;;;4945656;29;19927;-96
2021/06/03 15:12:47;;;;;;;;;;;27.40;49.20;;;;;;4954002;29;19927;-96
2021/06/03 15:15:18;;;;;;;;;;;27.00;48.70;;;;;;4959514;29;19927;-94
2021/06/03 15:17:46;;;;;;;;;;;26.30;53.40;;;;;;4961224;28;19926;-96
2021/06/03 15:20:16;;;;;;;;;;;26.10;53.00;;;;;;4954781;29;19937;-95
2021/06/03 15:22:43;;;;;;;;;;;26.50;51.20;;;;;;4945336;29;19931;-95
2021/06/03 15:25:12;;;;;;;;;;;26.40;50.90;;;;;;4946865;29;20335;-96
2021/06/03 15:27:39;;;;;;;;;;;25.40;52.70;;;;;;4945192;29;20267;-95
2021/06/03 15:30:08;;;;;;;;;;;24.80;54.10;;;;;;4945721;29;19999;-96
2021/06/03 15:32:37;;;;;;;;;;;24.40;54.20;;;;;;4945760;29;20026;-96
2021/06/03 15:35:06;;;;;;;;;;;24.40;57.80;;;;;;4945745;29;20013;-94
2021/06/03 15:37:33;;;;;;;;;;;24.70;58.30;;;;;;4945763;29;20279;-94
2021/06/03 15:40:00;;;;;;;;;;;25.10;59.10;;;;;;4945322;29;19933;-96
2021/06/03 15:42:27;;;;;;;;;;;25.00;54.80;;;;;;4945660;29;19933;-95
2021/06/03 15:44:54;;;;;;;;;;;24.70;59.00;;;;;;4946234;29;20349;-95
2021/06/03 15:47:21;;;;;;;;;;;24.50;61.50;;;;;;4946021;29;20277;-95
2021/06/03 15:49:49;;;;;;;;;;;24.20;57.20;;;;;;4945688;29;19927;-96
2021/06/03 15:52:15;;;;;;;;;;;24.00;63.00;;;;;;4946405;29;19933;-95
2021/06/03 15:54:48;;;;;;;;;;;23.70;62.70;;;;;;4946606;29;19926;-95
2021/06/03 15:57:15;;;;;;;;;;;23.40;60.30;;;;;;4946251;29;20273;-95
2021/06/03 15:59:42;;;;;;;;;;;23.10;64.00;;;;;;4945158;29;19927;-96
2021/06/03 16:02:10;;;;;;;;;;;22.80;60.50;;;;;;4946038;29;20277;-95
2021/06/03 16:04:38;;;;;;;;;;;22.60;65.50;;;;;;4945469;29;20044;-95
2021/06/03 16:07:05;;;;;;;;;;;22.60;67.50;;;;;;4946068;29;19934;-95
2021/06/03 16:09:33;;;;;;;;;;;22.60;63.70;;;;;;4946602;29;19945;-95
2021/06/03 16:12:01;;;;;;;;;;;22.60;67.20;;;;;;4947409;29;19926;-96
2021/06/03 16:14:29;;;;;;;;;;;22.70;69.60;;;;;;4946843;29;19937;-95
2021/06/03 16:16:57;;;;;;;;;;;22.80;70.30;;;;;;4948017;29;19927;-95
2021/06/03 16:19:24;;;;;;;;;;;22.80;64.70;;;;;;4945985;29;19926;-94
2021/06/03 16:21:51;;;;;;;;;;;22.80;69.90;;;;;;4947532;29;20044;-95
2021/06/03 16:24:18;;;;;;;;;;;22.70;67.50;;;;;;4946258;29;20341;-96
2021/06/03 16:26:47;;;;;;;;;;;23.00;67.30;;;;;;4945715;29;19933;-95
2021/06/03 16:29:14;;;;;;;;;;;23.60;64.00;;;;;;4946129;29;19930;-95
2021/06/03 16:31:41;;;;;;;;;;;24.50;62.00;;;;;;4931273;29;19952;-95
2021/06/03 16:34:11;;;;;;;;;;;25.40;62.40;;;;;;4940311;29;19926;-96
2021/06/03 16:36:38;;;;;;;;;;;25.90;60.10;;;;;;4926760;29;20017;-96
2021/06/03 16:39:06;;;;;;;;;;;26.10;56.20;;;;;;4927147;29;19927;-95
2021/06/03 16:41:33;;;;;;;;;;;25.60;57.20;;;;;;4926547;29;19933;-95
2021/06/03 16:44:04;;;;;;;;;;;25.70;60.30;;;;;;4927901;29;19926;-96
2021/06/03 16:46:32;;;;;;;;;;;25.60;56.40;;;;;;4928629;29;20017;-96
2021/06/03 16:49:00;;;;;;;;;;;25.00;56.70;;;;;;4939152;29;19926;-96
2021/06/03 16:51:27;;;;;;;;;;;24.60;58.10;;;;;;4946063;29;19974;-95
2021/06/03 16:53:55;;;;;;;;;;;24.70;56.80;;;;;;4944024;29;20015;-95
2021/06/03 16:56:22;;;;;;;;;;;24.60;58.60;;;;;;4934928;29;19927;-96
2021/06/03 16:58:49;;;;;;;;;;;24.50;57.80;;;;;;4929266;29;19934;-96
2021/06/03 17:01:18;;;;;;;;;;;24.30;57.40;;;;;;4928090;29;19927;-96
2021/06/03 17:03:48;;;;;;;;;;;24.20;56.90;;;;;;4927069;29;19926;-96
2021/06/03 17:06:17;;;;;;;;;;;23.90;58.00;;;;;;4926076;29;19926;-96
2021/06/03 17:08:44;;;;;;;;;;;23.60;56.90;;;;;;4926598;29;20359;-96
2021/06/03 17:11:11;;;;;;;;;;;23.50;59.00;;;;;;4925619;29;20335;-96
2021/06/03 17:13:39;;;;;;;;;;;23.30;60.20;;;;;;4911033;29;20023;-94
2021/06/03 17:16:06;;;;;;;;;;;23.50;63.50;;;;;;4926254;29;20370;-95
2021/06/03 17:18:33;;;;;;;;;;;23.80;59.60;;;;;;4925194;29;20006;-95
2021/06/03 17:21:02;;;;;;;;;;;23.60;57.90;;;;;;4925508;29;20080;-96
2021/06/03 17:23:30;;;;;;;;;;;23.60;59.50;;;;;;4926308;29;19927;-96
2021/06/03 17:26:00;;;;;;;;;;;23.90;60.10;;;;;;4926457;29;19927;-95
2021/06/03 17:28:27;;;;;;;;;;;23.90;60.80;;;;;;4909980;29;20013;-96
2021/06/03 17:30:58;;;;;;;;;;;24.10;59.20;;;;;;4924956;29;20290;-96
2021/06/03 17:33:26;;;;;;;;;;;24.00;57.20;;;;;;4926377;29;19927;-96
2021/06/03 17:35:53;;;;;;;;;;;23.70;59.10;;;;;;4943830;29;19927;-95
2021/06/03 17:38:22;;;;;;;;;;;23.60;59.20;;;;;;4942962;29;19937;-96
2021/06/03 17:40:51;;;;;;;;;;;23.40;61.40;;;;;;4943861;29;19927;-96
2021/06/03 17:43:19;;;;;;;;;;;23.40;63.00;;;;;;4944219;29;19926;-95
2021/06/03 17:45:46;;;;;;;;;;;23.60;60.90;;;;;;4944708;29;19927;-96
2021/06/03 17:48:14;;;;;;;;;;;23.40;58.90;;;;;;4942294;29;20430;-96
2021/06/03 17:50:42;;;;;;;;;;;22.90;60.00;;;;;;4942894;29;19933;-96
2021/06/03 17:53:08;;;;;;;;;;;22.60;65.80;;;;;;4942336;29;19926;-94
2021/06/03 17:55:37;;;;;;;;;;;22.50;63.00;;;;;;4943357;29;19926;-95
2021/06/03 17:58:07;;;;;;;;;;;22.40;65.20;;;;;;4944057;29;19985;-95
2021/06/03 18:00:37;;;;;;;;;;;22.40;64.40;;;;;;4943283;29;19930;-96
2021/06/03 18:03:05;;;;;;;;;;;22.40;65.70;;;;;;4942542;29;19937;-96
2021/06/03 18:05:33;;;;;;;;;;;22.30;63.40;;;;;;4947684;28;19926;-96
2021/06/03 18:08:04;;;;;;;;;;;22.30;66.10;;;;;;4964104;28;19941;-95
2021/06/03 18:10:31;;;;;;;;;;;22.30;66.60;;;;;;4961870;28;19934;-96
2021/06/03 18:12:58;;;;;;;;;;;22.10;67.60;;;;;;4956625;29;19926;-96
2021/06/03 18:15:27;;;;;;;;;;;21.80;67.00;;;;;;4947880;29;19995;-94
2021/06/03 18:17:54;;;;;;;;;;;21.60;68.60;;;;;;4943967;29;19933;-95
2021/06/03 18:20:23;;;;;;;;;;;21.30;69.20;;;;;;4952737;29;19934;-95
2021/06/03 18:22:50;;;;;;;;;;;20.90;70.30;;;;;;4957914;29;20151;-95
2021/06/03 18:25:18;;;;;;;;;;;20.50;72.20;;;;;;4960347;28;19932;-95
2021/06/03 18:27:48;;;;;;;;;;;20.00;72.90;;;;;;4961432;28;19950;-96
2021/06/03 18:30:18;;;;;;;;;;;19.60;74.20;;;;;;4943505;29;19930;-96
2021/06/03 18:32:46;;;;;;;;;;;19.20;74.50;;;;;;4943572;29;20446;-96
2021/06/03 18:35:14;;;;;;;;;;;18.80;77.10;;;;;;4942968;29;20010;-95
2021/06/03 18:37:42;;;;;;;;;;;18.40;78.50;;;;;;4943301;29;19926;-95
2021/06/03 18:40:10;;;;;;;;;;;18.10;78.30;;;;;;4962860;28;19942;-95
2021/06/03 18:42:37;;;;;;;;;;;17.90;78.90;;;;;;4961035;28;19957;-95
2021/06/03 18:45:07;;;;;;;;;;;17.70;75.80;;;;;;4943944;29;19941;-95
2021/06/03 18:47:35;;;;;;;;;;;17.60;79.40;;;;;;4945365;29;20403;-95
2021/06/03 18:50:02;;;;;;;;;;;17.50;80.10;;;;;;4941665;29;19982;-94
2021/06/03 18:52:30;;;;;;;;;;;17.40;79.70;;;;;;4941717;29;19954;-92
2021/06/03 18:58:26;;;;;;;;;;;17.10;82.60;;;;;;4966383;29;19921;-96
2021/06/03 19:01:03;;;;;;;;;;;16.90;82.30;;;;;;4971572;29;19954;-94
2021/06/03 19:03:46;;;;;;;;;;;16.70;83.40;;;;;;4938553;29;19969;-96
2021/06/03 19:06:33;;;;;;;;;;;16.60;84.40;;;;;;4937929;29;19926;-94
2021/06/03 19:09:16;;;;;;;;;;;16.50;84.50;;;;;;4950931;29;19973;-94
2021/06/03 19:11:51;;;;;;;;;;;16.30;85.80;;;;;;4937725;29;19926;-96
2021/06/03 19:14:38;;;;;;;;;;;16.20;83.80;;;;;;4948981;29;19927;-95
2021/06/03 19:17:34;;;;;;;;;;;16.20;86.60;;;;;;4967571;29;19926;-96
2021/06/03 19:20:12;;;;;;;;;;;16.00;84.60;;;;;;4949818;29;19933;-96
2021/06/03 19:22:54;;;;;;;;;;;16.10;84.60;;;;;;4935612;29;19934;-96
2021/06/03 19:25:25;;;;;;;;;;;16.10;84.80;;;;;;4966333;29;19933;-96
2021/06/03 19:28:07;;;;;;;;;;;16.10;85.40;;;;;;4950089;28;19991;-94
2021/06/03 19:30:50;;;;;;;;;;;16.00;87.90;;;;;;4953967;29;19931;-95
2021/06/03 19:33:26;;;;;;;;;;;15.90;89.00;;;;;;4953293;29;19926;-95
2021/06/03 19:36:14;;;;;;;;;;;15.80;87.30;;;;;;4930747;29;20017;-94
2021/06/03 19:42:05;;;;;;;;;;;15.70;87.10;;;;;;4945088;29;19929;-96
2021/06/03 19:44:34;;;;;;;;;;;15.60;89.60;;;;;;4934938;29;19927;-96
2021/06/03 19:47:15;;;;;;;;;;;15.50;90.00;;;;;;4925720;29;19933;-96
2021/06/03 19:49:50;;;;;;;;;;;15.50;90.10;;;;;;4955780;29;19926;-96
2021/06/03 19:52:19;;;;;;;;;;;15.50;90.10;;;;;;4936429;29;19933;-96
2021/06/03 19:58:12;;;;;;;;;;;15.40;89.50;;;;;;4959457;29;19926;-95
2021/06/03 20:00:48;;;;;;;;;;;15.40;89.90;;;;;;4964532;23;19939;-96
2021/06/03 20:03:22;;;;;;;;;;;15.30;90.00;;;;;;4944047;29;20021;-92
2021/06/03 20:16:51;;;;;;;;;;;15.00;91.20;;;;;;4961427;29;19980;-96
2021/06/03 20:19:18;;;;;;;;;;;15.00;91.50;;;;;;4927190;29;19927;-94
2021/06/03 20:21:47;;;;;;;;;;;14.90;91.90;;;;;;4945392;29;19927;-94
2021/06/03 20:24:15;;;;;;;;;;;14.80;91.90;;;;;;4943270;29;19927;-94
2021/06/03 20:26:42;;;;;;;;;;;14.70;91.50;;;;;;4946308;29;19934;-94
2021/06/03 20:29:09;;;;;;;;;;;14.70;91.90;;;;;;4965241;28;19990;-94
2021/06/03 20:31:37;;;;;;;;;;;14.80;93.00;;;;;;4953437;29;19933;-95
2021/06/03 20:34:05;;;;;;;;;;;14.70;92.30;;;;;;4942676;29;19933;-95
2021/06/03 20:36:32;;;;;;;;;;;14.70;92.30;;;;;;4942658;29;20005;-95
2021/06/03 20:39:00;;;;;;;;;;;14.70;92.60;;;;;;4942432;29;19934;-96
2021/06/03 20:41:27;;;;;;;;;;;14.60;93.10;;;;;;4942003;29;19934;-94
2021/06/03 20:43:58;;;;;;;;;;;14.60;92.90;;;;;;4943081;29;19927;-94
2021/06/03 20:46:27;;;;;;;;;;;14.60;93.50;;;;;;4942538;29;19930;-94
2021/06/03 20:48:54;;;;;;;;;;;14.60;93.40;;;;;;4942670;29;19989;-94
2021/06/03 20:51:22;;;;;;;;;;;14.50;93.00;;;;;;4942350;29;19934;-95
2021/06/03 20:53:49;;;;;;;;;;;14.50;93.00;;;;;;4942997;29;19927;-96
2021/06/03 20:56:16;;;;;;;;;;;14.60;93.00;;;;;;4943183;29;19926;-96
2021/06/03 20:58:43;;;;;;;;;;;14.50;93.20;;;;;;4943059;29;19930;-96
2021/06/03 21:01:12;;;;;;;;;;;14.50;93.60;;;;;;4943835;29;19926;-96
2021/06/03 21:03:39;;;;;;;;;;;14.50;93.70;;;;;;4944557;29;20351;-96
2021/06/03 21:06:06;;;;;;;;;;;14.50;93.30;;;;;;4942340;29;19930;-96
2021/06/03 21:08:33;;;;;;;;;;;14.40;94.00;;;;;;4942923;29;19946;-96
2021/06/03 21:11:00;;;;;;;;;;;14.40;93.60;;;;;;4943352;29;20393;-95
2021/06/03 21:13:28;;;;;;;;;;;14.30;93.80;;;;;;4943252;29;20025;-96
2021/06/03 21:15:55;;;;;;;;;;;14.30;94.00;;;;;;4944579;29;19932;-96
2021/06/03 21:18:22;;;;;;;;;;;14.20;93.80;;;;;;4942411;29;19933;-95
2021/06/03 21:20:49;;;;;;;;;;;14.20;94.60;;;;;;4944672;29;19926;-96
2021/06/03 21:23:16;;;;;;;;;;;14.20;94.00;;;;;;4944006;29;19927;-96
2021/06/03 21:25:43;;;;;;;;;;;14.20;94.50;;;;;;4942892;29;19938;-95
2021/06/03 21:28:12;;;;;;;;;;;14.10;94.40;;;;;;4962422;28;19966;-96
2021/06/03 21:30:39;;;;;;;;;;;14.10;94.20;;;;;;4964658;28;19949;-93
2021/06/03 21:33:12;;;;;;;;;;;14.00;94.40;;;;;;4964689;28;19925;-95
2021/06/03 21:35:41;;;;;;;;;;;14.00;94.50;;;;;;4964107;28;19927;-94
2021/06/03 21:38:08;;;;;;;;;;;13.90;94.80;;;;;;4954055;29;20355;-95
2021/06/03 21:40:37;;;;;;;;;;;13.90;95.60;;;;;;4942479;29;19927;-96
2021/06/03 21:43:04;;;;;;;;;;;13.80;94.80;;;;;;4941726;29;19930;-96
2021/06/03 21:45:31;;;;;;;;;;;13.80;95.60;;;;;;4942288;29;19927;-95
2021/06/03 21:47:59;;;;;;;;;;;13.70;95.20;;;;;;4941806;29;19926;-95
2021/06/03 21:50:25;;;;;;;;;;;13.70;95.10;;;;;;4942059;29;19930;-95
2021/06/03 21:52:53;;;;;;;;;;;13.70;95.00;;;;;;4941051;29;20011;-95
2021/06/03 21:55:21;;;;;;;;;;;13.70;94.90;;;;;;4941256;29;20001;-95
2021/06/03 21:57:50;;;;;;;;;;;13.80;95.30;;;;;;4941670;29;19953;-96
2021/06/03 22:00:22;;;;;;;;;;;13.80;95.00;;;;;;4941147;29;19926;-94
2021/06/03 22:02:51;;;;;;;;;;;13.70;95.50;;;;;;4941127;29;20017;-95
2021/06/03 22:05:20;;;;;;;;;;;13.70;95.50;;;;;;4941631;29;19958;-96
2021/06/03 22:07:47;;;;;;;;;;;13.60;95.70;;;;;;4940760;29;20381;-94
2021/06/03 22:10:14;;;;;;;;;;;13.60;96.10;;;;;;4941179;29;19937;-96
2021/06/03 22:12:41;;;;;;;;;;;13.50;96.40;;;;;;4940621;29;19930;-96
2021/06/03 22:15:11;;;;;;;;;;;13.50;95.90;;;;;;4940953;29;20363;-96
2021/06/03 22:17:39;;;;;;;;;;;13.50;95.90;;;;;;4962134;28;19911;-96
2021/06/03 22:20:08;;;;;;;;;;;13.50;96.00;;;;;;4961332;28;19921;-95
2021/06/03 22:22:35;;;;;;;;;;;13.50;96.10;;;;;;4940553;29;19933;-96
2021/06/03 22:25:04;;;;;;;;;;;13.50;96.40;;;;;;4941326;29;19969;-95
2021/06/03 22:27:31;;;;;;;;;;;13.50;96.40;;;;;;4940784;29;19926;-96